Time;durP1;ratioP1;P1;durP2;ratioP2;P2;SDS_P1;SDS_P2;PMS_P1;PMS_P2;Temp;Humidity;BMP_temperature;BMP_pressure;BME280_temperature;BME280_humidity;BME280_pressure;Samples;Min_cycle;Max_cycle;Signal;HPM_P1;HPM_P2
2023/06/09 00:01:38;;;;;;;;;;;;;;;22.56;63.35;100802.16;5042936;28;20226;-83
2023/06/09 00:04:09;;;;;;;;;;;;;;;22.56;63.22;100812.97;5014315;28;19924;-82
2023/06/09 00:06:37;;;;;;;;;;;;;;;22.52;63.25;100807.16;5031344;28;20351;-84
2023/06/09 00:09:04;;;;;;;;;;;;;;;22.56;62.89;100802.97;5022905;28;19977;-84
2023/06/09 00:11:34;;;;;;;;;;;;;;;22.52;62.80;100806.31;5020363;28;20204;-84
2023/06/09 00:14:05;;;;;;;;;;;;;;;22.52;62.64;100795.50;5009105;28;20308;-84
2023/06/09 00:16:32;;;;;;;;;;;;;;;22.46;62.83;100802.59;5000303;28;20277;-82
2023/06/09 00:19:01;;;;;;;;;;;;;;;22.46;62.70;100793.66;5023105;28;19924;-84
2023/06/09 00:21:31;;;;;;;;;;;;;;;22.44;62.72;100793.84;5020178;28;19975;-84
2023/06/09 00:23:59;;;;;;;;;;;;;;;22.44;62.53;100801.97;5014134;28;20754;-84
2023/06/09 00:26:29;;;;;;;;;;;;;;;22.44;62.37;100798.44;5052209;28;19974;-83
2023/06/09 00:28:58;;;;;;;;;;;;;;;22.40;62.58;100800.72;5043826;28;20007;-83
2023/06/09 00:31:25;;;;;;;;;;;;;;;22.37;62.57;100796.56;5038591;28;20022;-82
2023/06/09 00:33:51;;;;;;;;;;;;;;;22.40;62.57;100796.16;5017782;28;19947;-82
2023/06/09 00:36:19;;;;;;;;;;;;;;;22.44;62.27;100798.44;5000193;28;20536;-83
2023/06/09 00:38:45;;;;;;;;;;;;;;;22.44;61.72;100804.66;5027853;28;20360;-83
2023/06/09 00:41:18;;;;;;;;;;;;;;;22.47;61.96;100798.00;5060934;28;19977;-81
2023/06/09 00:43:47;;;;;;;;;;;;;;;22.43;62.25;100802.16;4982187;28;19949;-81
2023/06/09 00:46:15;;;;;;;;;;;;;;;22.42;62.00;100806.75;5022261;28;19928;-84
2023/06/09 00:48:41;;;;;;;;;;;;;;;22.38;62.08;100800.13;5045062;28;20133;-83
2023/06/09 00:51:08;;;;;;;;;;;;;;;22.37;61.73;100796.56;5017771;28;19925;-81
2023/06/09 00:53:35;;;;;;;;;;;;;;;22.38;61.67;100789.28;5010953;28;19928;-83
2023/06/09 00:56:01;;;;;;;;;;;;;;;22.39;61.49;100786.38;5026375;28;20108;-84
2023/06/09 00:58:28;;;;;;;;;;;;;;;22.43;61.55;100791.34;5039158;28;20396;-82
2023/06/09 01:00:57;;;;;;;;;;;;;;;22.47;61.13;100787.19;5033552;28;20744;-82
2023/06/09 01:03:32;;;;;;;;;;;;;;;22.51;60.97;100788.44;5052783;28;20117;-81
2023/06/09 01:06:13;;;;;;;;;;;;;;;22.51;60.89;100788.44;5063371;28;19930;-81
2023/06/09 01:08:51;;;;;;;;;;;;;;;22.27;60.19;100742.06;5037171;28;19924;-83
2023/06/09 01:11:41;;;;;;;;;;;;;;;22.47;60.73;100787.19;5023800;28;20126;-84
2023/06/09 01:14:17;;;;;;;;;;;;;;;22.44;60.99;100793.03;5042147;28;20094;-82
2023/06/09 01:17:00;;;;;;;;;;;;;;;22.45;61.01;100786.56;5049879;28;20189;-82
2023/06/09 01:19:53;;;;;;;;;;;;;;;22.43;60.75;100791.34;5058316;28;19924;-84
2023/06/09 01:22:23;;;;;;;;;;;;;;;22.47;61.31;100784.47;5031936;28;20019;-81
2023/06/09 01:25:09;;;;;;;;;;;;;;;22.44;61.65;100769.50;5042921;28;20140;-82
2023/06/09 01:27:36;;;;;;;;;;;;;;;22.55;61.42;100773.44;5028457;28;19946;-82
2023/06/09 01:30:09;;;;;;;;;;;;;;;22.52;60.81;100771.16;5026446;28;20436;-82
2023/06/09 01:32:42;;;;;;;;;;;;;;;22.42;61.37;100759.94;5036495;28;19924;-82
2023/06/09 01:35:09;;;;;;;;;;;;;;;22.30;61.85;100765.97;5029807;28;19943;-83
2023/06/09 01:37:39;;;;;;;;;;;;;;;22.25;61.99;100773.88;5026192;28;19924;-84
2023/06/09 01:40:10;;;;;;;;;;;;;;;22.18;62.46;100778.44;5047596;28;20001;-83
2023/06/09 01:42:46;;;;;;;;;;;;;;;21.88;62.49;100730.22;5028598;28;20366;-84
2023/06/09 01:45:19;;;;;;;;;;;;;;;22.22;61.50;100771.63;5007465;28;19932;-83
2023/06/09 01:47:48;;;;;;;;;;;;;;;22.36;61.72;100770.56;5027243;28;19924;-84
2023/06/09 01:50:27;;;;;;;;;;;;;;;22.28;61.33;100768.09;5052165;28;20023;-82
2023/06/09 01:53:20;;;;;;;;;;;;;;;22.19;61.84;100769.31;5035940;28;20169;-81
2023/06/09 01:56:04;;;;;;;;;;;;;;;22.12;61.66;100769.28;5031920;28;20024;-82
2023/06/09 01:58:41;;;;;;;;;;;;;;;22.15;61.48;100773.44;5049661;28;20211;-83
2023/06/09 02:01:16;;;;;;;;;;;;;;;22.21;60.95;100771.81;4999050;28;20455;-83
2023/06/09 02:03:47;;;;;;;;;;;;;;;22.21;61.58;100772.66;5051527;28;19924;-84
2023/06/09 02:06:19;;;;;;;;;;;;;;;22.16;61.98;100773.25;5080316;28;20377;-83
2023/06/09 02:08:46;;;;;;;;;;;;;;;22.13;61.76;100775.53;5071144;28;19924;-83
2023/06/09 02:11:13;;;;;;;;;;;;;;;22.11;62.09;100761.38;5060045;28;19928;-83
2023/06/09 02:13:40;;;;;;;;;;;;;;;22.15;61.64;100770.75;5053911;28;20392;-83
2023/06/09 02:16:07;;;;;;;;;;;;;;;22.14;61.08;100766.41;5050155;28;19924;-85
2023/06/09 02:18:33;;;;;;;;;;;;;;;22.01;61.77;100769.91;5047315;28;19973;-83
2023/06/09 02:21:00;;;;;;;;;;;;;;;22.00;61.58;100764.72;5036965;28;19924;-83
2023/06/09 02:23:27;;;;;;;;;;;;;;;21.92;61.82;100766.59;5061404;28;20004;-83
2023/06/09 02:25:54;;;;;;;;;;;;;;;21.86;61.60;100758.47;5043705;28;19931;-83
2023/06/09 02:28:23;;;;;;;;;;;;;;;21.61;61.06;100713.16;5047927;28;20155;-84
2023/06/09 02:30:49;;;;;;;;;;;;;;;21.92;61.09;100768.47;5055114;28;20270;-83
2023/06/09 02:33:19;;;;;;;;;;;;;;;21.46;60.79;100683.63;5024394;28;19928;-84
2023/06/09 02:35:49;;;;;;;;;;;;;;;22.03;60.15;100758.91;5036432;28;20286;-84
2023/06/09 02:38:15;;;;;;;;;;;;;;;22.09;59.98;100758.91;5049233;28;20023;-83
2023/06/09 02:40:43;;;;;;;;;;;;;;;22.04;60.10;100763.25;5035059;28;20537;-83
2023/06/09 02:43:13;;;;;;;;;;;;;;;22.00;60.22;100753.91;5033447;28;19977;-84
2023/06/09 02:45:43;;;;;;;;;;;;;;;21.95;60.18;100752.66;5035760;28;19924;-81
2023/06/09 02:48:12;;;;;;;;;;;;;;;21.96;60.04;100759.72;5016673;28;19928;-85
2023/06/09 02:50:39;;;;;;;;;;;;;;;21.94;60.72;100760.97;5040819;28;19927;-83
2023/06/09 02:53:09;;;;;;;;;;;;;;;21.89;61.02;100756.19;5031353;28;20234;-84
2023/06/09 02:55:39;;;;;;;;;;;;;;;21.85;61.63;100752.25;5025397;28;20377;-82
2023/06/09 02:58:05;;;;;;;;;;;;;;;21.79;61.85;100757.63;5023825;28;20104;-82
2023/06/09 03:00:32;;;;;;;;;;;;;;;21.74;61.83;100756.38;5018712;28;20173;-82
2023/06/09 03:03:06;;;;;;;;;;;;;;;21.73;62.30;100770.13;5003357;28;20310;-83
2023/06/09 03:05:40;;;;;;;;;;;;;;;21.78;61.65;100773.03;4993738;28;19924;-83
2023/06/09 03:08:10;;;;;;;;;;;;;;;21.63;64.15;100783.19;4984871;28;19929;-84
2023/06/09 03:10:41;;;;;;;;;;;;;;;20.91;65.58;100705.25;5023354;28;20080;-83
2023/06/09 03:13:12;;;;;;;;;;;;;;;21.28;66.29;100799.44;5004238;28;20096;-84
2023/06/09 03:15:40;;;;;;;;;;;;;;;21.21;67.08;100798.59;5016439;28;20181;-80
2023/06/09 03:18:10;;;;;;;;;;;;;;;21.18;67.23;100796.31;4973184;28;20072;-83
2023/06/09 03:20:37;;;;;;;;;;;;;;;21.07;67.60;100793.16;4998585;28;19929;-81
2023/06/09 03:23:04;;;;;;;;;;;;;;;21.01;68.07;100806.59;5022757;28;20389;-83
2023/06/09 03:25:31;;;;;;;;;;;;;;;21.03;68.15;100807.25;4998937;28;19932;-81
2023/06/09 03:27:57;;;;;;;;;;;;;;;20.93;68.63;100802.22;5017678;28;19924;-82
2023/06/09 03:30:24;;;;;;;;;;;;;;;20.84;68.98;100800.72;5023644;28;20280;-84
2023/06/09 03:32:50;;;;;;;;;;;;;;;20.73;69.33;100796.72;5012562;28;20293;-83
2023/06/09 03:35:20;;;;;;;;;;;;;;;20.67;69.85;100798.31;5016940;28;19933;-84
2023/06/09 03:37:47;;;;;;;;;;;;;;;20.79;69.37;100803.19;5012842;28;20015;-82
2023/06/09 03:40:15;;;;;;;;;;;;;;;20.83;69.39;100809.84;5008519;28;19935;-82
2023/06/09 03:42:46;;;;;;;;;;;;;;;20.69;70.16;100798.97;5002310;28;19947;-84
2023/06/09 03:45:20;;;;;;;;;;;;;;;20.65;70.35;100800.38;4996525;28;19959;-83
2023/06/09 03:47:46;;;;;;;;;;;;;;;20.59;70.76;100801.19;5022346;28;19929;-82
2023/06/09 03:50:13;;;;;;;;;;;;;;;20.55;70.87;100805.28;4983581;28;19974;-81
2023/06/09 03:52:40;;;;;;;;;;;;;;;20.54;71.15;100809.00;5002737;28;20271;-83
2023/06/09 03:55:07;;;;;;;;;;;;;;;20.58;71.13;100810.28;5000226;28;19928;-82
2023/06/09 03:57:34;;;;;;;;;;;;;;;20.57;71.17;100807.81;5021202;28;19928;-82
2023/06/09 04:00:01;;;;;;;;;;;;;;;20.67;70.69;100803.72;5025028;28;19936;-83
2023/06/09 04:02:30;;;;;;;;;;;;;;;20.72;70.69;100799.59;5048822;28;20459;-83
2023/06/09 04:04:58;;;;;;;;;;;;;;;20.78;70.49;100805.03;5021990;28;20180;-82
2023/06/09 04:07:31;;;;;;;;;;;;;;;20.75;70.47;100810.81;5050664;28;19935;-83
2023/06/09 04:09:58;;;;;;;;;;;;;;;20.90;69.79;100813.41;5031615;28;20374;-83
2023/06/09 04:12:25;;;;;;;;;;;;;;;20.84;70.21;100808.81;5033289;28;19924;-81
2023/06/09 04:14:52;;;;;;;;;;;;;;;20.82;70.33;100806.28;5055582;28;19931;-82
2023/06/09 04:17:19;;;;;;;;;;;;;;;20.77;70.80;100813.31;5034128;28;20380;-81
2023/06/09 04:19:48;;;;;;;;;;;;;;;20.53;69.98;100761.47;5028811;28;20156;-83
2023/06/09 04:22:21;;;;;;;;;;;;;;;20.60;69.83;100759.69;5038033;28;19981;-85
2023/06/09 04:24:48;;;;;;;;;;;;;;;20.89;70.09;100809.03;5034148;28;19931;-82
2023/06/09 04:27:19;;;;;;;;;;;;;;;20.60;69.56;100765.09;5040843;28;20096;-82
2023/06/09 04:29:46;;;;;;;;;;;;;;;21.04;68.71;100814.28;5020556;28;20320;-82
2023/06/09 04:32:14;;;;;;;;;;;;;;;21.01;68.74;100815.53;5025269;28;19924;-81
2023/06/09 04:34:41;;;;;;;;;;;;;;;21.06;68.85;100818.47;5035617;28;19977;-82
2023/06/09 04:37:08;;;;;;;;;;;;;;;20.99;69.14;100811.38;5030355;28;19925;-82
2023/06/09 04:39:35;;;;;;;;;;;;;;;20.94;68.57;100813.84;5019802;28;19924;-82
2023/06/09 04:42:03;;;;;;;;;;;;;;;20.88;68.75;100805.50;5029296;28;20003;-81
2023/06/09 04:44:35;;;;;;;;;;;;;;;21.00;67.90;100821.97;5018163;28;20213;-82
2023/06/09 04:47:03;;;;;;;;;;;;;;;21.07;67.85;100825.53;5033041;28;20003;-83
2023/06/09 04:49:35;;;;;;;;;;;;;;;21.02;67.87;100806.44;5032200;28;19924;-83
2023/06/09 04:52:02;;;;;;;;;;;;;;;21.07;68.91;100830.94;5039409;28;19931;-83
2023/06/09 04:54:29;;;;;;;;;;;;;;;21.12;69.60;100828.47;5041698;28;19928;-82
2023/06/09 04:57:02;;;;;;;;;;;;;;;20.74;67.81;100743.59;5044158;28;19924;-84
2023/06/09 04:59:36;;;;;;;;;;;;;;;21.32;68.05;100827.72;5069501;28;19931;-83
2023/06/09 05:02:03;;;;;;;;;;;;;;;21.37;68.39;100832.53;5019950;28;19934;-84
2023/06/09 05:04:30;;;;;;;;;;;;;;;21.40;67.77;100832.97;5038808;28;19935;-83
2023/06/09 05:06:58;;;;;;;;;;;;;;;21.57;67.50;100835.31;5053392;28;20381;-82
2023/06/09 05:09:25;;;;;;;;;;;;;;;21.69;66.91;100836.41;5029604;28;20117;-80
2023/06/09 05:11:55;;;;;;;;;;;;;;;21.42;66.73;100779.59;5052487;28;19931;-84
2023/06/09 05:14:28;;;;;;;;;;;;;;;21.81;67.02;100837.47;5053455;28;19931;-81
2023/06/09 05:16:59;;;;;;;;;;;;;;;21.54;67.00;100788.78;5046038;28;20243;-82
2023/06/09 05:19:27;;;;;;;;;;;;;;;22.00;64.82;100840.41;5065095;28;19928;-81
2023/06/09 05:21:56;;;;;;;;;;;;;;;22.05;64.72;100844.16;5065553;28;19935;-83
2023/06/09 05:24:24;;;;;;;;;;;;;;;22.12;64.08;100844.16;5051963;28;19931;-89
2023/06/09 05:27:00;;;;;;;;;;;;;;;22.25;63.37;100844.19;5062467;28;19934;-89
2023/06/09 05:29:30;;;;;;;;;;;;;;;22.27;63.05;100842.13;5043083;28;19931;-89
2023/06/09 05:32:15;;;;;;;;;;;;;;;22.32;63.27;100845.03;5052125;28;19924;-90
2023/06/09 05:34:58;;;;;;;;;;;;;;;22.42;63.97;100843.78;5059004;28;20429;-92
2023/06/09 05:37:28;;;;;;;;;;;;;;;22.51;62.46;100858.78;5037961;28;20102;-91
2023/06/09 05:40:02;;;;;;;;;;;;;;;22.56;61.73;100851.69;5066237;28;20136;-88
2023/06/09 05:42:37;;;;;;;;;;;;;;;22.63;61.74;100851.69;5044956;28;20445;-89
2023/06/09 05:45:09;;;;;;;;;;;;;;;22.68;62.12;100848.34;5027232;28;19932;-86
2023/06/09 05:47:39;;;;;;;;;;;;;;;22.72;61.20;100850.44;5018686;28;20039;-86
2023/06/09 05:50:08;;;;;;;;;;;;;;;22.92;60.82;100839.56;5007806;28;20135;-84
2023/06/09 05:52:35;;;;;;;;;;;;;;;22.91;60.49;100837.06;5048433;28;20299;-91
2023/06/09 05:55:02;;;;;;;;;;;;;;;22.90;60.94;100840.81;5031965;28;20224;-91
2023/06/09 05:57:33;;;;;;;;;;;;;;;23.04;59.40;100842.47;5028274;28;19928;-91
2023/06/09 06:00:07;;;;;;;;;;;;;;;23.11;59.33;100845.16;5051949;28;19936;-90
2023/06/09 06:02:46;;;;;;;;;;;;;;;23.13;60.03;100846.63;5063583;28;20011;-90
2023/06/09 06:05:13;;;;;;;;;;;;;;;23.20;59.33;100847.41;5054373;28;20353;-91
2023/06/09 06:11:43;;;;;;;;;;;;;;;;;;;;;
2023/06/09 06:14:21;;;;;;;;;;;;;;;23.55;57.40;100860.63;5054509;28;20389;-91
2023/06/09 06:16:50;;;;;;;;;;;;;;;23.60;57.11;100863.50;5033398;28;19968;-92
2023/06/09 06:19:38;;;;;;;;;;;;;;;23.57;58.02;100860.38;5034101;28;20003;-91
2023/06/09 06:22:18;;;;;;;;;;;;;;;23.68;57.06;100855.13;5038592;28;19934;-91
2023/06/09 06:24:50;;;;;;;;;;;;;;;23.70;57.36;100856.78;5051782;28;19930;-93
2023/06/09 06:27:28;;;;;;;;;;;;;;;23.77;56.58;100860.31;5044396;28;20608;-91
2023/06/09 06:30:15;;;;;;;;;;;;;;;23.77;56.18;100868.47;5057775;28;19960;-91
2023/06/09 06:32:49;;;;;;;;;;;;;;;23.86;56.02;100867.13;5037685;28;19935;-94
2023/06/09 06:35:25;;;;;;;;;;;;;;;23.83;56.63;100875.72;5064073;28;19924;-92
2023/06/09 06:37:55;;;;;;;;;;;;;;;23.81;57.07;100875.94;5055680;28;20069;-92
2023/06/09 06:40:22;;;;;;;;;;;;;;;23.81;56.57;100869.66;5054951;28;19956;-92
2023/06/09 06:42:52;;;;;;;;;;;;;;;23.94;55.66;100875.03;5030138;28;20176;-92
2023/06/09 06:45:19;;;;;;;;;;;;;;;23.90;54.93;100884.63;5056878;28;20431;-87
2023/06/09 06:47:52;;;;;;;;;;;;;;;23.82;56.18;100880.31;5052993;28;19936;-92
2023/06/09 06:50:28;;;;;;;;;;;;;;;23.87;55.70;100887.78;5016730;28;20021;-93
2023/06/09 06:52:57;;;;;;;;;;;;;;;23.89;55.87;100885.69;5027936;28;19928;-93
2023/06/09 06:55:30;;;;;;;;;;;;;;;23.92;55.94;100879.84;5023516;28;20400;-93
2023/06/09 06:58:05;;;;;;;;;;;;;;;23.90;56.17;100876.50;5012011;28;19925;-91
2023/06/09 07:00:39;;;;;;;;;;;;;;;24.06;55.51;100878.69;5038941;28;19928;-92
2023/06/09 07:03:16;;;;;;;;;;;;;;;24.12;55.39;100881.59;5054894;28;19924;-93
2023/06/09 07:05:47;;;;;;;;;;;;;;;24.16;55.70;100885.53;5031954;28;20104;-92
2023/06/09 07:08:20;;;;;;;;;;;;;;;24.23;55.17;100880.88;5036777;28;20550;-93
2023/06/09 07:10:48;;;;;;;;;;;;;;;24.31;54.70;100875.19;5059358;28;19924;-91
2023/06/09 07:13:18;;;;;;;;;;;;;;;24.36;54.57;100882.66;5054376;28;19928;-92
2023/06/09 07:15:48;;;;;;;;;;;;;;;24.53;54.13;100878.38;5056059;28;20030;-90
2023/06/09 07:18:15;;;;;;;;;;;;;;;24.47;54.76;100885.53;5052107;28;19928;-93
2023/06/09 07:20:47;;;;;;;;;;;;;;;24.52;54.00;100893.84;5054985;28;20284;-90
2023/06/09 07:23:21;;;;;;;;;;;;;;;24.55;54.66;100889.03;5048944;28;20259;-93
2023/06/09 07:25:48;;;;;;;;;;;;;;;24.61;52.92;100893.53;5045463;28;19931;-89
2023/06/09 07:28:15;;;;;;;;;;;;;;;24.66;53.97;100891.00;5074452;28;19931;-91
2023/06/09 07:30:44;;;;;;;;;;;;;;;24.38;54.12;100842.59;5057305;28;20380;-91
2023/06/09 07:33:11;;;;;;;;;;;;;;;24.72;53.97;100898.25;5040002;28;20445;-90
2023/06/09 07:35:55;;;;;;;;;;;;;;;24.51;54.51;100851.44;5040052;28;19925;-91
2023/06/09 07:38:30;;;;;;;;;;;;;;;24.83;54.28;100897.53;5034084;28;20171;-92
2023/06/09 07:41:09;;;;;;;;;;;;;;;24.87;53.73;100896.00;5023904;28;20196;-91
2023/06/09 07:43:45;;;;;;;;;;;;;;;24.92;53.33;100887.19;5015633;28;20226;-91
2023/06/09 07:46:14;;;;;;;;;;;;;;;25.07;53.89;100889.53;5001943;28;19955;-92
2023/06/09 07:49:00;;;;;;;;;;;;;;;25.07;52.81;100897.69;5019486;28;19955;-91
2023/06/09 07:51:49;;;;;;;;;;;;;;;25.18;52.64;100890.72;5045378;28;19930;-92
2023/06/09 07:54:30;;;;;;;;;;;;;;;25.32;53.07;100893.06;5033137;28;20626;-90
2023/06/09 07:57:05;;;;;;;;;;;;;;;25.38;52.88;100884.00;5040255;28;20292;-92
2023/06/09 07:59:40;;;;;;;;;;;;;;;25.14;53.57;100849.56;5025834;28;20372;-87
2023/06/09 08:02:06;;;;;;;;;;;;;;;25.43;52.93;100894.19;5030700;28;20390;-86
2023/06/09 08:04:33;;;;;;;;;;;;;;;25.44;52.75;100889.56;5020391;28;19930;-83
2023/06/09 08:07:00;;;;;;;;;;;;;;;25.41;52.79;100895.47;5018590;28;19971;-84
2023/06/09 08:09:27;;;;;;;;;;;;;;;25.49;52.68;100892.47;5013054;28;19978;-83
2023/06/09 08:11:54;;;;;;;;;;;;;;;25.47;52.55;100889.13;5011576;28;19924;-89
2023/06/09 08:14:22;;;;;;;;;;;;;;;25.57;52.50;100883.97;5020199;28;20056;-90
2023/06/09 08:16:49;;;;;;;;;;;;;;;25.54;52.55;100887.16;4987944;28;20370;-88
2023/06/09 08:19:16;;;;;;;;;;;;;;;25.49;52.01;100889.75;4995248;28;19929;-85
2023/06/09 08:21:44;;;;;;;;;;;;;;;25.45;52.60;100891.25;5019069;28;19932;-91
2023/06/09 08:24:13;;;;;;;;;;;;;;;25.48;53.45;100891.59;5020139;28;20267;-86
2023/06/09 08:26:40;;;;;;;;;;;;;;;25.60;53.17;100888.94;4999690;28;19925;-88
2023/06/09 08:29:07;;;;;;;;;;;;;;;25.56;52.51;100885.06;5023890;28;20522;-89
2023/06/09 08:31:37;;;;;;;;;;;;;;;25.38;53.49;100856.81;5027773;28;19990;-82
2023/06/09 08:34:04;;;;;;;;;;;;;;;25.61;52.85;100892.50;5041406;28;19931;-84
2023/06/09 08:36:31;;;;;;;;;;;;;;;25.59;52.30;100887.31;5020085;28;19948;-82
2023/06/09 08:39:02;;;;;;;;;;;;;;;25.67;52.75;100895.13;5023287;28;20498;-84
2023/06/09 08:41:33;;;;;;;;;;;;;;;25.87;52.29;100894.06;5022386;28;20168;-84
2023/06/09 08:44:01;;;;;;;;;;;;;;;25.97;52.15;100899.78;5018257;28;19955;-83
2023/06/09 08:46:32;;;;;;;;;;;;;;;26.03;51.77;100900.75;5036140;28;19952;-84
2023/06/09 08:49:00;;;;;;;;;;;;;;;26.16;51.23;100903.25;5001208;28;19986;-83
2023/06/09 08:51:27;;;;;;;;;;;;;;;26.21;51.33;100906.97;5022309;28;19933;-84
2023/06/09 08:53:57;;;;;;;;;;;;;;;26.03;51.52;100859.97;5011398;28;20185;-83
2023/06/09 08:56:23;;;;;;;;;;;;;;;26.33;51.61;100901.53;5022170;28;20174;-84
2023/06/09 08:58:51;;;;;;;;;;;;;;;26.45;50.74;100896.09;5025037;28;20015;-83
2023/06/09 09:01:18;;;;;;;;;;;;;;;26.51;51.14;100900.63;5032036;28;19931;-83
2023/06/09 09:03:47;;;;;;;;;;;;;;;26.50;50.70;100898.94;5044087;28;19928;-83
2023/06/09 09:06:20;;;;;;;;;;;;;;;26.57;49.84;100893.44;5042715;28;19969;-82
2023/06/09 09:08:48;;;;;;;;;;;;;;;26.52;50.32;100894.09;5017435;28;20509;-82
2023/06/09 09:11:15;;;;;;;;;;;;;;;26.50;50.98;100896.22;5037505;28;20294;-83
2023/06/09 09:13:41;;;;;;;;;;;;;;;26.53;49.89;100893.09;5022539;28;20352;-82
2023/06/09 09:16:13;;;;;;;;;;;;;;;26.50;50.32;100888.06;5033007;28;20283;-82
2023/06/09 09:18:44;;;;;;;;;;;;;;;26.52;50.84;100891.38;5013550;28;19931;-82
2023/06/09 09:21:19;;;;;;;;;;;;;;;26.50;50.10;100895.41;5026228;28;20049;-82
2023/06/09 09:23:54;;;;;;;;;;;;;;;26.12;50.97;100847.66;5019399;28;19940;-82
2023/06/09 09:26:26;;;;;;;;;;;;;;;26.47;51.07;100885.81;5026637;28;20366;-83
2023/06/09 09:28:56;;;;;;;;;;;;;;;26.47;50.58;100887.72;5030730;28;19928;-81
2023/06/09 09:31:35;;;;;;;;;;;;;;;26.58;50.63;100876.88;5032579;28;20380;-82
2023/06/09 09:34:02;;;;;;;;;;;;;;;26.62;50.37;100869.88;5012929;28;19932;-82
2023/06/09 09:36:37;;;;;;;;;;;;;;;26.75;50.76;100867.97;5030089;28;20007;-83
2023/06/09 09:39:06;;;;;;;;;;;;;;;26.88;50.28;100858.75;5022463;28;19928;-82
2023/06/09 09:41:33;;;;;;;;;;;;;;;26.91;50.71;100861.81;5029520;28;19932;-82
2023/06/09 09:44:00;;;;;;;;;;;;;;;27.02;49.28;100852.00;5028529;28;19924;-82
2023/06/09 09:46:30;;;;;;;;;;;;;;;27.16;48.87;100853.38;5025714;28;20275;-83
2023/06/09 09:48:58;;;;;;;;;;;;;;;27.19;48.41;100847.47;5022779;28;20007;-81
2023/06/09 09:51:27;;;;;;;;;;;;;;;26.75;49.41;100783.56;5025603;28;19924;-82
2023/06/09 09:53:59;;;;;;;;;;;;;;;27.06;48.96;100848.56;5024588;28;20239;-82
2023/06/09 09:56:29;;;;;;;;;;;;;;;27.20;48.49;100837.41;5010701;28;19936;-82
2023/06/09 09:58:59;;;;;;;;;;;;;;;27.19;48.52;100827.59;5043663;28;19924;-82
2023/06/09 10:01:28;;;;;;;;;;;;;;;27.37;48.51;100846.47;5021249;28;19935;-82
2023/06/09 10:03:55;;;;;;;;;;;;;;;27.48;48.45;100850.25;5039581;28;19934;-81
2023/06/09 10:06:27;;;;;;;;;;;;;;;27.41;48.50;100855.81;5045319;28;19978;-82
2023/06/09 10:08:57;;;;;;;;;;;;;;;27.50;48.49;100853.53;5043513;28;20549;-82
2023/06/09 10:11:29;;;;;;;;;;;;;;;27.48;48.25;100856.50;5041722;28;20169;-82
2023/06/09 10:13:56;;;;;;;;;;;;;;;27.41;47.79;100855.00;5052870;28;20672;-84
2023/06/09 10:16:24;;;;;;;;;;;;;;;27.56;48.55;100854.47;5053702;28;19931;-81
2023/06/09 10:18:52;;;;;;;;;;;;;;;27.67;47.40;100856.31;5048092;28;19924;-82
2023/06/09 10:21:19;;;;;;;;;;;;;;;27.65;47.37;100850.28;5055037;28;19924;-83
2023/06/09 10:23:47;;;;;;;;;;;;;;;27.74;48.06;100848.81;5051036;28;20349;-82
2023/06/09 10:26:15;;;;;;;;;;;;;;;27.76;47.20;100851.31;5047127;28;19924;-82
2023/06/09 10:28:41;;;;;;;;;;;;;;;27.95;47.42;100854.69;5054467;28;20298;-83
2023/06/09 10:31:11;;;;;;;;;;;;;;;28.15;46.85;100849.56;5050665;28;19928;-84
2023/06/09 10:33:43;;;;;;;;;;;;;;;28.40;46.19;100845.59;5038823;28;19928;-83
2023/06/09 10:36:10;;;;;;;;;;;;;;;28.63;46.79;100844.63;5051870;28;20410;-82
2023/06/09 10:38:43;;;;;;;;;;;;;;;28.80;45.25;100842.69;5032263;28;20022;-82
2023/06/09 10:41:28;;;;;;;;;;;;;;;28.73;45.00;100837.38;5041673;28;20351;-82
2023/06/09 10:44:01;;;;;;;;;;;;;;;28.88;44.83;100835.94;5064350;28;20019;-82
2023/06/09 10:46:42;;;;;;;;;;;;;;;29.17;44.29;100837.44;5046962;28;19931;-83
2023/06/09 10:49:40;;;;;;;;;;;;;;;29.47;43.54;100838.91;5028179;28;20303;-83
2023/06/09 10:52:28;;;;;;;;;;;;;;;29.44;43.38;100831.19;5032013;28;19924;-83
2023/06/09 10:55:15;;;;;;;;;;;;;;;29.44;43.12;100831.19;5047907;28;20019;-83
2023/06/09 10:57:41;;;;;;;;;;;;;;;29.52;43.47;100825.28;5053400;28;19924;-82
2023/06/09 11:00:14;;;;;;;;;;;;;;;29.70;42.67;100826.84;5039577;28;20264;-81
2023/06/09 11:02:42;;;;;;;;;;;;;;;30.02;42.90;100826.88;5038604;28;19928;-83
2023/06/09 11:05:09;;;;;;;;;;;;;;;30.32;42.37;100828.25;5014192;28;20389;-83
2023/06/09 11:07:39;;;;;;;;;;;;;;;30.54;41.41;100817.16;5017630;28;20007;-83
2023/06/09 11:10:06;;;;;;;;;;;;;;;30.88;40.67;100814.91;5022474;28;20420;-83
2023/06/09 11:12:47;;;;;;;;;;;;;;;30.98;40.50;100814.16;5034867;28;19924;-84
2023/06/09 11:15:15;;;;;;;;;;;;;;;30.99;40.23;100821.25;5003409;28;19959;-83
2023/06/09 11:17:48;;;;;;;;;;;;;;;31.03;40.08;100811.41;5045541;28;20386;-83
2023/06/09 11:20:19;;;;;;;;;;;;;;;31.10;40.37;100808.44;5028532;28;19932;-83
2023/06/09 11:22:53;;;;;;;;;;;;;;;31.19;39.45;100809.56;5043825;28;19976;-84
2023/06/09 11:25:24;;;;;;;;;;;;;;;31.21;39.46;100807.34;5015519;28;19931;-84
2023/06/09 11:27:54;;;;;;;;;;;;;;;31.30;40.14;100799.44;5014528;28;20049;-84
2023/06/09 11:30:25;;;;;;;;;;;;;;;31.38;38.61;100792.59;5023648;28;19935;-84
2023/06/09 11:32:53;;;;;;;;;;;;;;;31.53;37.55;100798.16;5006700;28;19925;-84
2023/06/09 11:35:27;;;;;;;;;;;;;;;31.57;36.98;100793.78;5014164;28;20176;-83
2023/06/09 11:38:00;;;;;;;;;;;;;;;31.89;36.67;100795.44;5026822;28;20089;-82
2023/06/09 11:40:28;;;;;;;;;;;;;;;31.95;35.89;100797.13;5015491;28;20007;-82
2023/06/09 11:43:01;;;;;;;;;;;;;;;31.80;36.78;100769.63;5027671;28;19928;-82
2023/06/09 11:45:32;;;;;;;;;;;;;;;32.16;35.98;100789.69;5014752;28;19928;-82
2023/06/09 11:48:04;;;;;;;;;;;;;;;31.94;35.69;100737.78;4969623;28;19924;-82
2023/06/09 11:50:40;;;;;;;;;;;;;;;32.36;36.56;100783.38;5017728;28;19932;-82
2023/06/09 11:53:07;;;;;;;;;;;;;;;32.41;36.60;100794.34;4999626;28;19924;-82
2023/06/09 11:55:36;;;;;;;;;;;;;;;32.56;36.31;100786.09;5020420;28;20420;-82
2023/06/09 11:58:05;;;;;;;;;;;;;;;32.63;35.06;100782.22;4989123;28;20468;-84
2023/06/09 12:00:32;;;;;;;;;;;;;;;32.87;35.68;100777.75;5020042;28;20185;-82
2023/06/09 12:03:00;;;;;;;;;;;;;;;33.10;35.10;100772.72;5009160;28;19986;-82
2023/06/09 12:05:31;;;;;;;;;;;;;;;33.39;34.60;100776.38;5013854;28;20325;-82
2023/06/09 12:08:03;;;;;;;;;;;;;;;33.24;35.25;100765.47;5003749;28;20326;-82
2023/06/09 12:10:31;;;;;;;;;;;;;;;32.92;35.29;100733.72;4997083;28;20173;-81
2023/06/09 12:13:03;;;;;;;;;;;;;;;33.13;34.86;100774.88;5014724;28;19931;-83
2023/06/09 12:15:30;;;;;;;;;;;;;;;33.16;35.53;100772.41;4972637;28;20132;-83
2023/06/09 12:18:03;;;;;;;;;;;;;;;33.26;35.06;100760.53;4982149;28;20069;-84
2023/06/09 12:20:35;;;;;;;;;;;;;;;32.56;34.70;100728.38;4989408;28;20237;-84
2023/06/09 12:23:06;;;;;;;;;;;;;;;32.64;35.56;100762.69;4984183;28;20374;-84
2023/06/09 12:25:41;;;;;;;;;;;;;;;32.24;35.69;100714.19;5009649;28;20203;-83
2023/06/09 12:28:24;;;;;;;;;;;;;;;32.48;35.17;100708.84;4989483;28;19929;-83
2023/06/09 12:31:00;;;;;;;;;;;;;;;33.00;34.12;100749.63;4985164;28;20520;-82
2023/06/09 12:33:27;;;;;;;;;;;;;;;33.22;33.62;100742.94;4998400;28;20390;-83
2023/06/09 12:36:10;;;;;;;;;;;;;;;33.40;34.08;100735.91;5030920;28;19925;-81
2023/06/09 12:38:43;;;;;;;;;;;;;;;33.78;34.13;100742.53;5011198;28;19947;-82
2023/06/09 12:41:13;;;;;;;;;;;;;;;33.92;33.06;100741.88;5019130;28;20416;-82
2023/06/09 12:43:51;;;;;;;;;;;;;;;33.56;32.81;100695.41;5006610;28;19928;-83
2023/06/09 12:46:18;;;;;;;;;;;;;;;33.73;33.26;100728.81;5013623;28;20459;-83
2023/06/09 12:49:02;;;;;;;;;;;;;;;33.41;32.90;100664.13;5020430;28;19974;-83
2023/06/09 12:51:29;;;;;;;;;;;;;;;34.09;32.58;100725.78;5010013;28;20723;-83
2023/06/09 12:53:56;;;;;;;;;;;;;;;34.10;31.62;100730.16;5019121;28;19932;-83
2023/06/09 12:56:25;;;;;;;;;;;;;;;34.08;31.82;100726.91;5016940;28;19939;-82
2023/06/09 12:58:54;;;;;;;;;;;;;;;33.57;31.91;100644.72;5019070;28;19955;-81
2023/06/09 13:01:24;;;;;;;;;;;;;;;34.25;31.54;100719.00;5018176;28;19931;-79